createdAt,value
2018-06-19T00:01:23.823Z,100445.86
2018-06-19T00:03:55.256Z,100442.55
2018-06-19T00:06:27.679Z,100442.81
2018-06-19T00:08:59.518Z,100429.87
2018-06-19T00:11:33.072Z,100445.73
2018-06-19T00:14:05.534Z,100445.56
2018-06-19T00:16:43.118Z,100440.05
2018-06-19T00:19:16.923Z,100446.45
2018-06-19T00:21:50.871Z,100447.34
2018-06-19T00:24:23.175Z,100443.92
2018-06-19T00:26:55.368Z,100444.80
2018-06-19T00:29:27.779Z,100443.28
2018-06-19T00:32:01.525Z,100443.47
2018-06-19T00:34:34.610Z,100448.11
2018-06-19T00:37:07.721Z,100447.44
2018-06-19T00:39:39.369Z,100449.61
2018-06-19T00:42:11.359Z,100440.27
2018-06-19T00:44:43.763Z,100451.88
2018-06-19T00:47:16.055Z,100444.04
2018-06-19T00:49:47.425Z,100449.61
2018-06-19T00:52:19.206Z,100446.90
2018-06-19T00:54:50.536Z,100450.00
2018-06-19T00:57:22.033Z,100446.89
2018-06-19T00:59:54.158Z,100452.92
2018-06-19T01:02:26.685Z,100325.05
2018-06-19T01:04:58.143Z,100450.97
2018-06-19T01:07:29.797Z,100450.76
2018-06-19T01:10:01.240Z,100444.27
2018-06-19T01:12:32.657Z,100449.63
2018-06-19T01:15:07.117Z,100420.77
2018-06-19T01:17:38.492Z,100448.16
2018-06-19T01:20:09.981Z,100446.69
2018-06-19T01:22:42.950Z,100444.29
2018-06-19T01:25:14.994Z,100447.20
2018-06-19T01:27:47.208Z,100443.65
2018-06-19T01:30:19.319Z,100445.72
2018-06-19T01:32:50.796Z,100441.33
2018-06-19T01:35:23.266Z,100440.95
2018-06-19T01:37:56.127Z,100444.47
2018-06-19T01:40:27.668Z,100450.64
2018-06-19T01:42:58.993Z,100441.98
2018-06-19T01:45:30.282Z,100444.50
2018-06-19T01:48:01.685Z,100447.50
2018-06-19T01:50:34.070Z,100441.50
2018-06-19T01:53:05.511Z,100441.88
2018-06-19T01:55:38.112Z,100451.39
2018-06-19T01:58:11.341Z,100450.72
2018-06-19T02:00:44.262Z,100445.20
2018-06-19T02:03:17.478Z,100445.97
2018-06-19T02:05:52.556Z,100455.19
2018-06-19T02:08:27.210Z,100458.92
2018-06-19T02:11:02.005Z,100458.77
2018-06-19T02:13:35.362Z,100451.23
2018-06-19T02:16:08.632Z,100461.95
2018-06-19T02:18:42.010Z,100456.11
2018-06-19T02:21:14.124Z,100453.98
2018-06-19T02:23:48.759Z,100454.81
2018-06-19T02:26:24.554Z,100460.73
2018-06-19T02:28:57.881Z,100452.34
2018-06-19T02:31:33.096Z,100453.58
2018-06-19T02:34:08.128Z,100450.73
2018-06-19T02:36:39.549Z,100451.58
2018-06-19T02:39:13.652Z,100447.00
2018-06-19T02:41:44.991Z,100457.46
2018-06-19T02:44:18.206Z,100454.78
2018-06-19T02:46:49.576Z,100460.30
2018-06-19T02:49:21.178Z,100459.25
2018-06-19T02:51:52.587Z,100461.59
2018-06-19T02:54:24.947Z,100469.32
2018-06-19T02:56:56.767Z,100468.31
2018-06-19T02:59:29.225Z,100470.48
2018-06-19T03:02:00.647Z,100477.30
2018-06-19T03:04:32.658Z,100477.47
2018-06-19T03:07:04.058Z,100476.55
2018-06-19T03:09:40.444Z,100481.68
2018-06-19T03:12:11.798Z,100472.38
2018-06-19T03:14:45.085Z,100482.94
2018-06-19T03:17:16.699Z,100479.05
2018-06-19T03:19:49.024Z,100487.89
2018-06-19T03:22:21.287Z,100488.21
2018-06-19T03:24:52.880Z,100484.90
2018-06-19T03:27:24.292Z,100482.62
2018-06-19T03:29:58.358Z,100489.48
2018-06-19T03:32:30.105Z,100494.97
2018-06-19T03:35:01.550Z,100498.87
2018-06-19T03:37:33.228Z,100502.09
2018-06-19T03:40:07.546Z,100496.44
2018-06-19T03:42:41.631Z,100496.15
2018-06-19T03:45:20.691Z,100492.59
2018-06-19T03:47:52.143Z,100488.11
2018-06-19T03:50:24.462Z,100498.13
2018-06-19T03:52:56.965Z,100485.23
2018-06-19T03:55:27.435Z,100496.57
2018-06-19T03:57:59.861Z,100491.05
2018-06-19T04:00:31.227Z,100494.75
2018-06-19T04:03:03.762Z,100497.31
2018-06-19T04:05:37.618Z,100492.13
2018-06-19T04:08:10.704Z,100497.66
2018-06-19T04:10:43.401Z,100502.19
2018-06-19T04:15:53.314Z,100498.36
2018-06-19T04:18:30.543Z,100501.10
2018-06-19T04:21:05.612Z,100492.79
2018-06-19T04:23:38.663Z,100499.44
2018-06-19T04:26:13.835Z,100509.85
2018-06-19T04:28:45.712Z,100511.04
2018-06-19T04:31:18.058Z,100505.23
2018-06-19T04:33:49.455Z,100518.52
2018-06-19T04:36:21.171Z,100529.06
2018-06-19T04:38:53.074Z,100532.73
2018-06-19T04:41:25.307Z,100531.14
2018-06-19T04:43:56.752Z,100533.44
2018-06-19T04:46:28.751Z,100525.16
2018-06-19T04:49:01.777Z,100535.66
2018-06-19T04:51:34.986Z,100458.97
2018-06-19T04:54:06.302Z,100536.98
2018-06-19T04:56:39.282Z,100532.02
2018-06-19T04:59:18.502Z,100546.93
2018-06-19T05:01:51.632Z,100545.28
2018-06-19T05:04:23.108Z,100546.95
2018-06-19T05:07:00.865Z,100554.38
2018-06-19T05:09:32.218Z,100562.30
2018-06-19T05:12:06.026Z,100557.03
2018-06-19T05:14:38.266Z,100550.61
2018-06-19T05:17:09.980Z,100558.27
2018-06-19T05:19:45.049Z,100548.34
2018-06-19T05:22:17.218Z,100549.11
2018-06-19T05:24:50.428Z,100551.70
2018-06-19T05:27:22.756Z,100553.72
2018-06-19T05:29:55.417Z,100555.17
2018-06-19T05:32:28.672Z,100560.44
2018-06-19T05:35:01.312Z,100565.09
2018-06-19T05:37:33.616Z,100578.55
2018-06-19T05:40:06.582Z,100577.44
2018-06-19T05:42:39.178Z,100559.58
2018-06-19T05:45:15.009Z,100580.78
2018-06-19T05:47:48.142Z,100572.53
2018-06-19T05:50:21.108Z,100578.84
2018-06-19T05:52:56.359Z,100575.25
2018-06-19T05:55:31.538Z,100576.34
2018-06-19T05:58:07.264Z,100573.00
2018-06-19T06:00:42.909Z,100570.52
2018-06-19T06:03:15.675Z,100574.04
2018-06-19T06:05:48.503Z,100579.91
2018-06-19T06:08:24.201Z,100577.45
2018-06-19T06:10:57.386Z,100585.17
2018-06-19T06:13:31.898Z,100599.42
2018-06-19T06:16:05.226Z,100588.19
2018-06-19T06:18:41.641Z,100592.05
2018-06-19T06:21:13.937Z,100585.16
2018-06-19T06:23:46.386Z,100592.78
2018-06-19T06:26:19.692Z,100579.81
2018-06-19T06:28:53.122Z,100590.50
2018-06-19T06:31:25.382Z,100591.80
2018-06-19T06:34:00.313Z,100587.28
2018-06-19T06:36:32.527Z,100583.09
2018-06-19T06:39:09.332Z,100586.42
2018-06-19T06:41:40.854Z,100590.22
2018-06-19T06:44:14.373Z,100591.91
2018-06-19T06:46:46.448Z,100594.15
2018-06-19T06:49:22.231Z,100597.07
2018-06-19T06:51:55.358Z,100592.08
2018-06-19T06:54:29.788Z,100638.80
2018-06-19T06:57:05.500Z,100596.37
2018-06-19T06:59:38.056Z,100599.15
2018-06-19T07:02:11.900Z,100606.56
2018-06-19T07:04:45.341Z,100606.95
2018-06-19T07:07:16.803Z,100605.32
2018-06-19T07:09:51.850Z,100607.14
2018-06-19T07:12:24.918Z,100600.75
2018-06-19T07:14:58.535Z,100596.87
2018-06-19T07:17:33.638Z,100604.45
2018-06-19T07:20:08.653Z,100611.03
2018-06-19T07:22:43.789Z,100605.06
2018-06-19T07:25:18.058Z,100610.34
2018-06-19T07:27:52.862Z,100603.95
2018-06-19T07:30:28.737Z,100603.56
2018-06-19T07:33:02.626Z,100606.41
2018-06-19T07:35:36.922Z,100592.75
2018-06-19T07:38:12.179Z,100604.11
2018-06-19T07:40:48.640Z,100598.30
2018-06-19T07:43:24.526Z,100595.63
2018-06-19T07:45:58.840Z,100602.95
2018-06-19T07:48:32.248Z,100591.94
2018-06-19T07:51:06.509Z,100581.34
2018-06-19T07:53:40.465Z,100589.45
2018-06-19T07:56:15.098Z,100594.84
2018-06-19T07:58:48.482Z,100593.00
2018-06-19T08:01:25.648Z,100598.45
2018-06-19T08:03:58.811Z,100595.94
2018-06-19T08:06:33.117Z,100597.31
2018-06-19T08:09:10.432Z,100606.67
2018-06-19T08:11:46.941Z,100605.47
2018-06-19T08:14:22.233Z,100611.02
2018-06-19T08:16:59.415Z,100618.69
2018-06-19T08:19:35.473Z,100618.53
2018-06-19T08:22:15.683Z,100613.02
2018-06-19T08:24:52.357Z,100619.89
2018-06-19T08:27:29.618Z,100614.05
2018-06-19T08:30:09.619Z,100609.68
2018-06-19T08:32:45.860Z,100607.39
2018-06-19T08:35:20.546Z,100622.91
2018-06-19T08:37:54.616Z,100609.25
2018-06-19T08:40:30.152Z,100617.95
2018-06-19T08:43:04.543Z,100618.48
2018-06-19T08:45:38.335Z,100616.16
2018-06-19T08:48:12.495Z,100616.72
2018-06-19T08:50:46.578Z,100609.98
2018-06-19T08:55:55.990Z,100609.20
2018-06-19T08:58:29.203Z,100610.36
2018-06-19T09:01:04.206Z,100604.23
2018-06-19T09:03:38.312Z,100613.48
2018-06-19T09:06:14.696Z,100610.05
2018-06-19T09:08:48.279Z,100613.16
2018-06-19T09:11:22.017Z,100614.13
2018-06-19T09:13:56.661Z,100616.04
2018-06-19T09:16:31.209Z,100614.42
2018-06-19T09:19:06.055Z,100626.10
2018-06-19T09:21:40.650Z,100622.66
2018-06-19T09:24:16.735Z,100620.92
2018-06-19T09:26:50.565Z,100624.97
2018-06-19T09:29:25.548Z,100622.69
2018-06-19T09:31:58.743Z,100621.82
2018-06-19T09:34:32.082Z,100622.30
2018-06-19T09:37:07.225Z,100622.66
2018-06-19T09:39:43.569Z,100624.31
2018-06-19T09:42:20.502Z,100626.61
2018-06-19T09:44:55.479Z,100619.84
2018-06-19T09:47:29.915Z,100623.17
2018-06-19T09:50:03.148Z,100627.31
2018-06-19T09:52:38.674Z,100628.73
2018-06-19T09:55:15.676Z,100627.09
2018-06-19T09:57:50.451Z,100629.55
2018-06-19T10:00:28.765Z,100632.16
2018-06-19T10:03:02.960Z,100634.67
2018-06-19T10:05:38.069Z,100640.16
2018-06-19T10:08:15.158Z,100634.77
2018-06-19T10:10:49.373Z,100647.79
2018-06-19T10:13:25.847Z,100641.33
2018-06-19T10:16:02.819Z,100644.71
2018-06-19T10:18:37.986Z,100643.25
2018-06-19T10:21:11.975Z,100638.78
2018-06-19T10:23:47.256Z,100648.00
2018-06-19T10:26:23.218Z,100647.17
2018-06-19T10:29:02.295Z,100648.34
2018-06-19T10:31:38.424Z,100648.47
2018-06-19T10:34:12.684Z,100639.97
2018-06-19T10:36:46.341Z,100632.86
2018-06-19T10:39:21.577Z,100619.67
2018-06-19T10:41:55.357Z,100631.20
2018-06-19T10:47:30.726Z,100633.86
2018-06-19T11:00:14.436Z,100633.47
2018-06-19T11:02:50.188Z,100625.91
2018-06-19T11:05:29.847Z,100632.79
2018-06-19T11:08:02.827Z,100642.80
2018-06-19T11:10:35.885Z,100639.89
2018-06-19T11:13:12.309Z,100637.17
2018-06-19T11:15:46.489Z,100638.32
2018-06-19T11:18:19.536Z,100636.00
2018-06-19T11:20:52.893Z,100638.57
2018-06-19T11:23:27.949Z,100638.77
2018-06-19T11:26:01.763Z,100642.57
2018-06-19T11:28:34.836Z,100631.84
2018-06-19T11:31:08.843Z,100637.80
2018-06-19T11:33:43.686Z,100637.78
2018-06-19T11:36:18.429Z,100632.96
2018-06-19T11:38:54.452Z,100636.17
2018-06-19T11:41:30.584Z,100627.31
2018-06-19T11:44:05.116Z,100634.41
2018-06-19T11:46:39.738Z,100635.28
2018-06-19T11:49:13.261Z,100631.84
2018-06-19T11:51:46.311Z,100641.81
2018-06-19T11:54:20.109Z,100632.19
2018-06-19T11:56:53.911Z,100630.78
2018-06-19T11:59:28.307Z,100622.39
2018-06-19T12:02:03.079Z,100632.77
2018-06-19T12:04:36.214Z,100618.28
2018-06-19T12:07:12.850Z,100622.72
2018-06-19T12:09:46.612Z,100621.21
2018-06-19T12:12:19.752Z,100622.94
2018-06-19T12:14:53.223Z,100617.31
2018-06-19T12:17:28.392Z,100616.66
2018-06-19T12:20:02.371Z,100611.67
2018-06-19T12:22:35.511Z,100613.08
2018-06-19T12:25:11.521Z,100614.27
2018-06-19T12:27:50.526Z,100610.73
2018-06-19T12:30:24.245Z,100621.45
2018-06-19T12:32:57.305Z,100612.41
2018-06-19T12:35:31.372Z,100610.46
2018-06-19T12:38:05.461Z,100611.86
2018-06-19T12:40:41.514Z,100608.81
2018-06-19T12:43:16.097Z,100593.14
2018-06-19T12:45:53.370Z,100612.54
2018-06-19T12:48:28.860Z,100614.81
2018-06-19T12:52:18.524Z,100618.91
2018-06-19T12:56:02.350Z,100616.98
2018-06-19T12:58:37.358Z,100627.23
2018-06-19T13:01:12.356Z,100620.56
2018-06-19T13:03:57.399Z,100621.44
2018-06-19T13:06:35.776Z,100614.08
2018-06-19T13:09:14.143Z,100619.70
2018-06-19T13:11:50.059Z,100613.91
2018-06-19T13:14:36.412Z,100621.61
2018-06-19T13:17:20.831Z,100597.70
2018-06-19T13:20:05.375Z,100619.36
2018-06-19T13:22:38.451Z,100626.13
2018-06-19T13:28:00.602Z,100624.73
2018-06-19T13:32:42.299Z,100625.02
2018-06-19T13:35:15.252Z,100615.30
2018-06-19T13:37:52.122Z,100622.75
2018-06-19T13:41:02.099Z,100615.39
2018-06-19T13:43:46.425Z,100624.78
2018-06-19T13:46:20.341Z,100615.38
2018-06-19T13:48:55.900Z,100613.94
2018-06-19T13:51:33.899Z,100613.94
2018-06-19T13:54:23.409Z,100611.47
2018-06-19T13:57:07.219Z,100614.64
2018-06-19T13:59:41.160Z,100613.93
2018-06-19T14:02:24.423Z,100594.44
2018-06-19T14:05:00.378Z,100617.75
2018-06-19T14:07:41.987Z,100616.37
2018-06-19T14:10:37.440Z,100615.89
2018-06-19T14:13:12.213Z,100607.78
2018-06-19T14:15:48.828Z,100523.12
2018-06-19T14:18:22.371Z,100610.16
2018-06-19T14:20:56.480Z,100610.74
2018-06-19T14:23:29.702Z,100607.22
2018-06-19T14:26:03.054Z,100622.58
2018-06-19T14:28:40.106Z,100597.72
2018-06-19T14:31:21.103Z,100600.23
2018-06-19T14:33:56.391Z,100607.75
2018-06-19T14:36:33.446Z,100608.02
2018-06-19T14:39:09.940Z,100604.89
2018-06-19T14:41:44.349Z,100603.16
2018-06-19T14:44:26.809Z,100609.72
2018-06-19T14:46:59.922Z,100611.83
2018-06-19T14:49:34.399Z,100597.13
2018-06-19T14:52:09.097Z,100599.85
2018-06-19T14:54:44.410Z,100598.47
2018-06-19T14:57:23.125Z,100597.98
2018-06-19T14:59:57.909Z,100598.34
2018-06-19T15:02:34.364Z,100602.52
2018-06-19T15:05:08.905Z,100601.11
2018-06-19T15:07:50.101Z,100606.44
2018-06-19T15:10:23.728Z,100609.30
2018-06-19T15:12:57.442Z,100602.70
2018-06-19T15:15:30.457Z,100608.80
2018-06-19T15:18:05.185Z,100605.61
2018-06-19T15:20:41.951Z,100603.55
2018-06-19T15:23:15.651Z,100602.67
2018-06-19T15:25:52.255Z,100608.66
2018-06-19T15:28:25.882Z,100603.45
2018-06-19T15:30:59.693Z,100604.38
2018-06-19T15:33:32.807Z,100598.06
2018-06-19T15:36:05.849Z,100598.12
2018-06-19T15:38:40.575Z,100605.17
2018-06-19T15:41:14.897Z,100599.28
2018-06-19T15:43:48.542Z,100597.72
2018-06-19T15:46:21.920Z,100600.25
2018-06-19T15:48:55.371Z,100597.13
2018-06-19T15:51:28.464Z,100592.39
2018-06-19T15:54:04.257Z,100605.22
2018-06-19T15:56:38.493Z,100603.50
2018-06-19T15:59:12.050Z,100598.88
2018-06-19T16:01:46.051Z,100603.14
2018-06-19T16:04:26.293Z,100601.67
2018-06-19T16:07:01.725Z,100600.36
2018-06-19T16:09:34.768Z,100600.36
2018-06-19T16:12:08.560Z,100601.12
2018-06-19T16:14:44.374Z,100597.64
2018-06-19T16:17:19.612Z,100600.50
2018-06-19T16:19:53.805Z,100598.07
2018-06-19T16:22:28.358Z,100596.59
2018-06-19T16:25:01.437Z,100597.75
2018-06-19T16:27:34.524Z,100598.67
2018-06-19T16:30:07.730Z,100588.53
2018-06-19T16:32:41.657Z,100598.85
2018-06-19T16:35:14.611Z,100592.95
2018-06-19T16:37:47.650Z,100591.76
2018-06-19T16:40:23.418Z,100594.20
2018-06-19T16:43:01.635Z,100594.17
2018-06-19T16:48:16.020Z,100585.33
2018-06-19T16:50:50.415Z,100575.50
2018-06-19T16:53:24.628Z,100579.59
2018-06-19T16:56:00.027Z,100588.91
2018-06-19T16:58:33.873Z,100585.52
2018-06-19T17:01:07.007Z,100587.61
2018-06-19T17:03:41.340Z,100581.38
2018-06-19T17:06:14.884Z,100573.69
2018-06-19T17:08:56.247Z,100573.45
2018-06-19T17:11:33.307Z,100560.61
2018-06-19T17:14:10.312Z,100579.36
2018-06-19T17:16:48.502Z,100569.50
2018-06-19T17:19:22.396Z,100574.63
2018-06-19T17:21:55.928Z,100565.78
2018-06-19T17:24:31.335Z,100573.53
2018-06-19T17:27:04.397Z,100572.77
2018-06-19T17:30:42.384Z,100568.98
2018-06-19T17:33:16.844Z,100565.39
2018-06-19T17:35:53.485Z,100568.58
2018-06-19T17:38:26.487Z,100564.05
2018-06-19T17:41:00.741Z,100563.39
2018-06-19T17:43:36.111Z,100568.47
2018-06-19T17:46:10.360Z,100566.39
2018-06-19T17:48:43.428Z,100563.84
2018-06-19T17:51:17.528Z,100568.87
2018-06-19T17:53:54.490Z,100562.87
2018-06-19T17:56:28.640Z,100561.00
2018-06-19T17:59:03.485Z,100562.08
2018-06-19T18:01:38.353Z,100559.97
2018-06-19T18:04:12.935Z,100559.64
2018-06-19T18:06:47.025Z,100558.06
2018-06-19T18:09:20.111Z,100562.87
2018-06-19T18:11:53.228Z,100563.86
2018-06-19T18:14:27.777Z,100556.64
2018-06-19T18:17:00.994Z,100561.96
2018-06-19T18:19:34.832Z,100560.31
2018-06-19T18:22:13.369Z,100557.14
2018-06-19T18:24:50.814Z,100557.98
2018-06-19T18:27:24.625Z,100551.94
2018-06-19T18:30:02.726Z,100533.38
2018-06-19T18:32:37.812Z,100556.81
2018-06-19T18:35:11.576Z,100554.12
2018-06-19T18:37:47.357Z,100555.59
2018-06-19T18:40:23.961Z,100557.94
2018-06-19T18:42:59.955Z,100554.97
2018-06-19T18:45:37.593Z,100556.11
2018-06-19T18:48:12.697Z,100552.33
2018-06-19T18:50:48.183Z,100556.77
2018-06-19T18:53:38.238Z,100548.55
2018-06-19T18:56:14.147Z,100546.67
2018-06-19T18:58:47.136Z,100540.08
2018-06-19T19:01:27.352Z,100544.47
2018-06-19T19:04:03.308Z,100543.91
2018-06-19T19:06:38.300Z,100551.63
2018-06-19T19:09:12.728Z,100548.59
2018-06-19T19:11:47.870Z,100554.91
2018-06-19T19:14:24.676Z,100550.77
2018-06-19T19:17:08.445Z,100553.73
2018-06-19T19:19:48.804Z,100558.59
2018-06-19T19:22:24.533Z,100549.76
2018-06-19T19:24:59.913Z,100555.52
2018-06-19T19:27:38.469Z,100559.84
2018-06-19T19:30:14.061Z,100563.37
2018-06-19T19:32:49.487Z,100572.03
2018-06-19T19:35:24.634Z,100566.75
2018-06-19T19:38:03.436Z,100564.83
2018-06-19T19:40:36.039Z,100568.57
2018-06-19T19:43:11.709Z,100567.94
2018-06-19T19:45:48.353Z,100563.80
2018-06-19T19:48:27.680Z,100568.34
2018-06-19T19:51:02.590Z,100568.53
2018-06-19T19:53:46.011Z,100567.39
2018-06-19T19:56:25.679Z,100565.66
2018-06-19T19:59:05.042Z,100565.70
2018-06-19T20:01:46.150Z,100568.47
2018-06-19T20:04:23.961Z,100568.09
2018-06-19T20:06:58.332Z,100570.66
2018-06-19T20:09:37.987Z,100571.53
2018-06-19T20:12:13.614Z,100586.80
2018-06-19T20:14:48.341Z,100578.42
2018-06-19T20:17:23.256Z,100580.24
2018-06-19T20:19:57.696Z,100577.59
2018-06-19T20:22:32.992Z,100580.27
2018-06-19T20:25:23.520Z,100579.59
2018-06-19T20:27:57.357Z,100584.89
2018-06-19T20:30:33.256Z,100577.13
2018-06-19T20:33:07.400Z,100574.99
2018-06-19T20:35:48.393Z,100577.62
2018-06-19T20:38:25.612Z,100581.56
2018-06-19T20:41:06.011Z,100583.53
2018-06-19T20:43:40.435Z,100582.33
2018-06-19T20:46:15.464Z,100590.73
2018-06-19T20:48:50.478Z,100585.70
2018-06-19T20:51:26.093Z,100587.39
2018-06-19T20:54:01.153Z,100585.42
2018-06-19T20:56:38.904Z,100588.39
2018-06-19T20:59:14.561Z,100590.23
2018-06-19T21:01:52.557Z,100580.70
2018-06-19T21:04:28.467Z,100585.63
2018-06-19T21:07:04.853Z,100586.70
2018-06-19T21:09:37.640Z,100592.56
2018-06-19T21:12:16.225Z,100583.46
2018-06-19T21:14:53.137Z,100587.59
2018-06-19T21:17:29.555Z,100597.62
2018-06-19T21:20:18.656Z,100595.88
2018-06-19T21:22:57.814Z,100591.45
2018-06-19T21:25:31.632Z,100593.27
2018-06-19T21:28:06.583Z,100591.12
2018-06-19T21:30:42.009Z,100596.51
2018-06-19T21:33:15.943Z,100593.59
2018-06-19T21:35:49.176Z,100602.00
2018-06-19T21:38:24.421Z,100609.84
2018-06-19T21:41:07.301Z,100587.28
2018-06-19T21:43:44.340Z,100599.05
2018-06-19T21:46:18.662Z,100600.14
2018-06-19T21:48:54.624Z,100599.42
2018-06-19T21:51:30.325Z,100602.72
2018-06-19T21:56:43.487Z,100616.72
2018-06-19T21:59:18.371Z,100607.56
2018-06-19T22:01:56.611Z,100609.27
2018-06-19T22:04:31.973Z,100605.67
2018-06-19T22:07:05.344Z,100611.70
2018-06-19T22:09:42.303Z,100609.31
2018-06-19T22:12:16.909Z,100609.59
2018-06-19T22:14:52.455Z,100612.39
2018-06-19T22:17:25.182Z,100610.27
2018-06-19T22:20:00.200Z,100606.75
2018-06-19T22:22:37.729Z,100608.41
2018-06-19T22:25:12.606Z,100603.37
2018-06-19T22:27:48.670Z,100603.56
2018-06-19T22:30:21.708Z,100600.91
2018-06-19T22:32:54.249Z,100602.39
2018-06-19T22:35:29.891Z,100602.20
2018-06-19T22:38:04.833Z,100604.73
2018-06-19T22:40:40.391Z,100605.68
2018-06-19T22:43:14.790Z,100603.95
2018-06-19T22:45:47.104Z,100593.09
2018-06-19T22:48:19.243Z,100592.03
2018-06-19T22:50:55.342Z,100596.89
2018-06-19T22:53:28.604Z,100592.69
2018-06-19T22:56:03.830Z,100593.55
2018-06-19T22:58:37.281Z,100595.83
2018-06-19T23:01:10.592Z,100596.20
2018-06-19T23:03:47.143Z,100594.33
2018-06-19T23:06:21.804Z,100591.93
2018-06-19T23:09:00.248Z,100593.06
2018-06-19T23:11:39.208Z,100591.70
2018-06-19T23:14:17.321Z,100597.46
2018-06-19T23:16:48.813Z,100585.13
2018-06-19T23:19:20.805Z,100594.23
2018-06-19T23:21:54.365Z,100591.36
2018-06-19T23:24:27.489Z,100597.66
2018-06-19T23:27:01.616Z,100589.06
2018-06-19T23:29:33.801Z,100592.52
2018-06-19T23:32:08.338Z,100596.74
2018-06-19T23:34:42.653Z,100597.91
2018-06-19T23:37:20.213Z,100595.67
2018-06-19T23:39:54.061Z,100586.72
2018-06-19T23:42:29.623Z,100599.18
2018-06-19T23:45:04.161Z,100598.41
2018-06-19T23:47:38.319Z,100588.98
2018-06-19T23:50:10.546Z,100591.72
2018-06-19T23:52:42.822Z,100580.30
2018-06-19T23:55:16.948Z,100591.83
2018-06-19T23:57:49.361Z,100589.00
